Time;durP1;ratioP1;P1;durP2;ratioP2;P2;SDS_P1;SDS_P2;PMS_P1;PMS_P2;Temp;Humidity;BMP_temperature;BMP_pressure;BME280_temperature;BME280_humidity;BME280_pressure;Samples;Min_cycle;Max_cycle;Signal;HPM_P1;HPM_P2
2022/08/13 00:01:36;;;;;;;8.20;3.88;;;19.30;94.80;;;;;;5006754;28;20042;-67
2022/08/13 00:04:03;;;;;;;6.07;4.28;;;19.30;94.90;;;;;;5008446;28;20089;-67
2022/08/13 00:09:04;;;;;;;7.57;4.20;;;19.20;95.20;;;;;;5008145;28;20125;-67
2022/08/13 00:14:15;;;;;;;7.10;4.03;;;19.20;95.80;;;;;;5009987;28;20038;-67
2022/08/13 00:16:41;;;;;;;5.97;3.90;;;19.10;96.20;;;;;;5006845;28;20372;-67
2022/08/13 00:19:07;;;;;;;4.70;4.15;;;19.10;96.40;;;;;;4989414;28;20046;-67
2022/08/13 00:21:33;;;;;;;7.15;3.65;;;19.10;96.60;;;;;;5006315;28;20048;-67
2022/08/13 00:23:58;;;;;;;6.05;4.13;;;19.00;96.80;;;;;;5006519;28;20156;-67
2022/08/13 00:26:27;;;;;;;9.63;5.00;;;18.90;97.10;;;;;;4988947;28;20046;-68
2022/08/13 00:28:54;;;;;;;7.88;4.07;;;18.90;97.30;;;;;;5007709;28;20048;-67
2022/08/13 00:31:21;;;;;;;7.00;4.65;;;18.90;97.40;;;;;;5020199;28;21439;-67
2022/08/13 00:33:47;;;;;;;9.85;4.15;;;18.90;98.00;;;;;;4989223;28;20050;-67
2022/08/13 00:36:13;;;;;;;5.82;4.50;;;18.80;98.00;;;;;;4990813;28;20053;-67
2022/08/13 00:38:44;;;;;;;6.25;4.50;;;18.80;98.10;;;;;;4989397;28;20103;-67
2022/08/13 00:41:13;;;;;;;6.00;4.70;;;18.70;98.20;;;;;;4989983;28;20041;-68
2022/08/13 00:43:39;;;;;;;8.68;4.57;;;18.70;98.20;;;;;;5003360;28;20423;-67
2022/08/13 00:46:05;;;;;;;10.93;5.25;;;18.70;98.50;;;;;;5007328;28;20030;-67
2022/08/13 00:48:43;;;;;;;6.28;4.80;;;18.70;98.70;;;;;;5007760;28;20042;-68
2022/08/13 00:51:10;;;;;;;6.50;4.95;;;18.70;98.80;;;;;;4988045;28;20052;-67
2022/08/13 00:53:40;;;;;;;6.45;5.03;;;18.60;98.90;;;;;;5005906;28;20124;-67
2022/08/13 00:56:08;;;;;;;9.00;4.75;;;18.60;99.30;;;;;;5005934;28;20104;-67
2022/08/13 00:58:35;;;;;;;9.50;4.47;;;18.60;99.20;;;;;;5007292;28;20084;-67
2022/08/13 01:01:02;;;;;;;6.20;4.30;;;18.50;99.60;;;;;;5008554;28;20053;-68
2022/08/13 01:03:30;;;;;;;6.22;4.75;;;18.50;99.80;;;;;;4987535;28;20041;-67
2022/08/13 01:05:58;;;;;;;6.82;5.03;;;18.50;99.90;;;;;;5006769;28;20067;-67
2022/08/13 01:08:24;;;;;;;7.20;4.90;;;18.40;99.90;;;;;;5006896;28;20049;-67
2022/08/13 01:10:50;;;;;;;9.25;5.50;;;18.30;99.90;;;;;;4990310;28;20037;-67
2022/08/13 01:13:18;;;;;;;9.95;5.32;;;18.30;99.90;;;;;;5011546;28;20113;-67
2022/08/13 01:15:44;;;;;;;11.10;5.90;;;18.20;99.90;;;;;;5012054;28;20069;-67
2022/08/13 01:18:15;;;;;;;7.57;5.45;;;18.00;99.90;;;;;;5012489;28;20050;-67
2022/08/13 01:20:48;;;;;;;6.97;5.45;;;18.20;99.90;;;;;;4986800;28;20029;-67
2022/08/13 01:23:15;;;;;;;7.75;5.43;;;18.10;99.90;;;;;;5010035;28;20058;-67
2022/08/13 01:25:42;;;;;;;6.90;5.97;;;18.10;99.90;;;;;;4988101;28;20108;-67
2022/08/13 01:28:08;;;;;;;11.27;6.35;;;18.10;99.90;;;;;;5024799;28;20046;-68
2022/08/13 01:30:37;;;;;;;12.32;6.70;;;18.10;99.90;;;;;;5011006;28;20101;-67
2022/08/13 01:33:02;;;;;;;13.00;6.80;;;18.00;99.90;;;;;;4992320;28;20038;-67
2022/08/13 01:35:28;;;;;;;10.32;7.00;;;18.00;99.90;;;;;;5009639;28;20080;-67
2022/08/13 01:37:57;;;;;;;10.02;6.18;;;17.90;99.90;;;;;;4996355;28;20056;-67
2022/08/13 01:40:23;;;;;;;8.60;6.53;;;17.90;99.90;;;;;;4992490;28;20060;-67
2022/08/13 01:42:50;;;;;;;8.63;6.47;;;17.90;99.90;;;;;;4990529;28;20040;-67
2022/08/13 01:45:17;;;;;;;9.77;6.80;;;17.80;99.90;;;;;;5011379;28;20037;-67
2022/08/13 01:50:29;;;;;;;8.95;6.30;;;17.80;99.90;;;;;;5023377;28;21514;-67
2022/08/13 01:53:07;;;;;;;9.80;6.00;;;17.70;99.90;;;;;;4992198;28;20030;-67
2022/08/13 01:55:45;;;;;;;8.43;6.97;;;17.70;99.90;;;;;;5009794;28;20072;-67
2022/08/13 01:58:19;;;;;;;10.13;6.90;;;17.70;99.90;;;;;;5009360;28;20037;-67
2022/08/13 02:00:47;;;;;;;9.40;6.50;;;17.60;99.90;;;;;;4991839;28;20399;-67
2022/08/13 02:03:14;;;;;;;9.05;6.40;;;17.50;99.90;;;;;;4992238;28;20071;-67
2022/08/13 02:05:40;;;;;;;9.77;6.47;;;17.50;99.90;;;;;;5009386;28;20538;-67
2022/08/13 02:08:08;;;;;;;9.55;7.00;;;17.50;99.90;;;;;;5009424;28;20562;-67
2022/08/13 02:10:40;;;;;;;9.13;7.00;;;17.40;99.90;;;;;;5009667;28;20048;-67
2022/08/13 02:13:10;;;;;;;10.50;6.93;;;17.40;99.90;;;;;;4992054;28;20045;-67
2022/08/13 02:15:36;;;;;;;12.10;6.60;;;17.40;99.90;;;;;;5006788;28;20414;-67
2022/08/13 02:18:03;;;;;;;9.55;6.78;;;17.40;99.90;;;;;;4990966;28;20034;-67
2022/08/13 02:20:34;;;;;;;10.23;7.18;;;17.30;99.90;;;;;;5010617;28;20040;-67
2022/08/13 02:23:01;;;;;;;8.95;6.85;;;17.30;99.90;;;;;;4990859;28;20081;-68
2022/08/13 02:25:29;;;;;;;12.27;7.13;;;17.30;99.90;;;;;;5009295;28;20061;-67
2022/08/13 02:27:56;;;;;;;9.30;7.20;;;17.30;99.90;;;;;;5008846;28;20037;-68
2022/08/13 02:30:26;;;;;;;9.02;6.85;;;17.20;99.90;;;;;;5009319;28;20045;-67
2022/08/13 02:32:52;;;;;;;7.75;6.20;;;17.10;99.90;;;;;;5009119;28;20063;-67
2022/08/13 02:35:19;;;;;;;8.82;7.25;;;17.10;99.90;;;;;;5009354;28;20113;-67
2022/08/13 02:37:47;;;;;;;7.15;6.45;;;17.10;99.90;;;;;;5009086;28;20108;-67
2022/08/13 02:42:59;;;;;;;8.93;7.78;;;17.00;99.90;;;;;;4990839;28;20126;-67
2022/08/13 02:45:27;;;;;;;9.23;7.20;;;17.00;99.90;;;;;;4986531;28;20038;-67
2022/08/13 02:47:53;;;;;;;8.18;7.30;;;17.00;99.90;;;;;;5009577;28;20487;-67
2022/08/13 02:50:20;;;;;;;9.88;7.55;;;16.90;99.90;;;;;;5007869;28;20136;-67
2022/08/13 02:52:51;;;;;;;7.82;7.00;;;16.90;99.90;;;;;;5008687;28;20136;-68
2022/08/13 02:55:19;;;;;;;9.10;7.28;;;16.90;99.90;;;;;;5011019;28;20044;-67
2022/08/13 02:57:46;;;;;;;10.15;7.78;;;16.90;99.90;;;;;;4991348;28;20041;-67
2022/08/13 03:00:12;;;;;;;10.40;7.57;;;16.90;99.90;;;;;;4975562;28;20104;-67
2022/08/13 03:02:43;;;;;;;9.32;6.95;;;16.80;99.90;;;;;;5007280;28;20026;-68
2022/08/13 03:05:11;;;;;;;12.75;7.25;;;16.80;99.90;;;;;;5008948;28;20049;-68
2022/08/13 03:07:41;;;;;;;10.23;7.78;;;16.80;99.90;;;;;;5007159;28;20128;-67
2022/08/13 03:10:11;;;;;;;7.82;6.63;;;16.70;99.90;;;;;;4967243;28;20046;-67
2022/08/13 03:12:44;;;;;;;8.10;6.07;;;16.70;99.90;;;;;;4991652;28;20109;-67
2022/08/13 03:15:10;;;;;;;;;;;16.70;99.90;;;;;;4990433;28;20053;-67
2022/08/13 03:17:37;;;;;;;10.45;7.22;;;16.70;99.90;;;;;;5008387;28;19921;-68
2022/08/13 03:20:06;;;;;;;11.45;7.90;;;16.60;99.90;;;;;;4990857;28;20050;-67
2022/08/13 03:22:45;;;;;;;14.18;6.97;;;16.60;99.90;;;;;;5010284;28;20046;-67
2022/08/13 03:25:11;;;;;;;11.10;7.15;;;16.60;99.90;;;;;;5006184;28;20042;-68
2022/08/13 03:27:36;;;;;;;7.70;6.82;;;16.60;99.90;;;;;;5022526;28;20050;-68
2022/08/13 03:30:02;;;;;;;8.90;6.97;;;16.60;99.90;;;;;;5008070;28;20184;-68
2022/08/13 03:32:28;;;;;;;9.10;6.97;;;16.50;99.90;;;;;;4990654;28;20056;-68
2022/08/13 03:34:56;;;;;;;12.65;7.28;;;16.50;99.90;;;;;;5007887;28;20033;-68
2022/08/13 03:37:21;;;;;;;10.10;6.97;;;16.50;99.90;;;;;;5009568;28;20045;-67
2022/08/13 03:39:47;;;;;;;9.60;7.15;;;16.40;99.90;;;;;;5009752;28;20117;-67
2022/08/13 03:42:13;;;;;;;9.68;7.68;;;16.40;99.90;;;;;;4990288;28;20408;-67
2022/08/13 03:44:40;;;;;;;13.20;8.48;;;16.40;99.90;;;;;;5008538;28;20065;-67
2022/08/13 03:47:09;;;;;;;12.75;7.53;;;16.30;99.90;;;;;;4990877;28;20049;-67
2022/08/13 03:49:36;;;;;;;11.48;7.25;;;16.30;99.90;;;;;;5007047;28;20044;-67
2022/08/13 03:52:02;;;;;;;9.23;6.88;;;16.30;99.90;;;;;;4991145;28;20050;-67
2022/08/13 03:54:28;;;;;;;10.68;7.15;;;16.30;99.90;;;;;;5008270;28;20057;-67
2022/08/13 03:56:54;;;;;;;11.38;6.55;;;16.30;99.90;;;;;;5006941;28;20488;-67
2022/08/13 03:59:20;;;;;;;7.93;7.05;;;16.20;99.90;;;;;;5007176;28;20400;-67
2022/08/13 04:01:47;;;;;;;10.65;7.43;;;16.20;99.90;;;;;;5020969;28;21436;-67
2022/08/13 04:04:12;;;;;;;13.15;7.47;;;16.20;99.90;;;;;;5009086;28;20037;-67
2022/08/13 04:06:38;;;;;;;13.73;7.20;;;16.20;99.90;;;;;;5006610;28;20040;-65
2022/08/13 04:09:04;;;;;;;8.68;7.53;;;16.10;99.90;;;;;;5008171;28;20080;-67
2022/08/13 04:11:30;;;;;;;10.73;7.25;;;16.10;99.90;;;;;;5007627;28;20558;-68
2022/08/13 04:13:55;;;;;;;13.80;6.93;;;16.10;99.90;;;;;;5007562;28;20033;-67
2022/08/13 04:16:25;;;;;;;11.75;6.68;;;16.10;99.90;;;;;;5008667;28;20484;-67
2022/08/13 04:18:51;;;;;;;9.88;6.70;;;16.10;99.90;;;;;;5008412;28;20041;-67
2022/08/13 04:21:19;;;;;;;12.40;6.45;;;16.00;99.90;;;;;;5007218;28;20046;-67
2022/08/13 04:23:46;;;;;;;7.13;6.43;;;16.00;99.90;;;;;;5004598;28;20141;-67
2022/08/13 04:26:15;;;;;;;8.25;6.80;;;16.00;99.90;;;;;;5007161;28;20122;-67
2022/08/13 04:28:42;;;;;;;8.52;6.50;;;16.00;99.90;;;;;;4989470;28;20049;-68
2022/08/13 04:31:11;;;;;;;8.70;6.40;;;16.00;99.90;;;;;;5006778;28;20088;-67
2022/08/13 04:33:38;;;;;;;7.80;6.03;;;16.00;99.90;;;;;;5009540;28;20112;-67
2022/08/13 04:36:05;;;;;;;6.65;5.70;;;16.00;99.90;;;;;;4989406;28;20077;-67
2022/08/13 04:38:31;;;;;;;10.45;7.18;;;16.00;99.90;;;;;;5006471;28;20069;-68
2022/08/13 04:40:57;;;;;;;7.85;6.07;;;15.90;99.90;;;;;;5007220;28;20038;-67
2022/08/13 04:43:23;;;;;;;7.50;5.97;;;15.90;99.90;;;;;;5007275;28;20038;-67
2022/08/13 04:45:49;;;;;;;9.73;6.78;;;15.90;99.90;;;;;;4990367;28;20482;-67
2022/08/13 04:48:15;;;;;;;9.55;6.68;;;15.90;99.90;;;;;;5004343;28;20128;-67
2022/08/13 04:50:44;;;;;;;9.43;7.40;;;16.00;99.90;;;;;;5007802;28;20046;-68
2022/08/13 04:53:28;;;;;;;11.57;8.10;;;15.90;99.90;;;;;;5020359;28;20572;-67
2022/08/13 04:55:55;;;;;;;11.00;7.57;;;15.90;99.90;;;;;;5005605;28;20041;-67
2022/08/13 04:58:23;;;;;;;11.50;7.78;;;15.90;99.90;;;;;;5003431;28;20042;-67
2022/08/13 05:00:50;;;;;;;11.07;7.63;;;15.90;99.90;;;;;;5004905;28;20519;-67
2022/08/13 05:03:18;;;;;;;10.80;7.88;;;15.90;99.90;;;;;;5007327;28;20092;-67
2022/08/13 05:05:47;;;;;;;10.73;7.60;;;15.90;99.90;;;;;;5005431;28;20040;-68
2022/08/13 05:08:15;;;;;;;8.35;6.85;;;15.90;99.90;;;;;;5008185;28;20049;-68
2022/08/13 05:10:42;;;;;;;12.07;7.30;;;15.90;99.90;;;;;;5006768;28;20402;-67
2022/08/13 05:13:27;;;;;;;10.07;7.45;;;15.90;99.90;;;;;;5008086;28;20122;-67
2022/08/13 05:15:59;;;;;;;9.68;7.18;;;15.90;99.90;;;;;;4989557;28;20170;-67
2022/08/13 05:18:27;;;;;;;11.65;7.45;;;15.90;99.90;;;;;;5005273;28;20046;-67
2022/08/13 05:20:53;;;;;;;12.40;7.53;;;16.00;99.90;;;;;;5006476;28;20152;-67
2022/08/13 05:23:21;;;;;;;11.13;7.50;;;16.00;99.90;;;;;;5006210;28;20057;-68
2022/08/13 05:25:48;;;;;;;9.20;7.10;;;16.10;99.90;;;;;;5006547;28;20145;-69
2022/08/13 05:28:17;;;;;;;9.85;7.07;;;16.10;99.90;;;;;;4990620;28;20499;-69
2022/08/13 05:30:46;;;;;;;11.13;7.55;;;16.10;99.90;;;;;;5008750;28;20467;-70
2022/08/13 05:33:23;;;;;;;7.75;6.95;;;16.10;99.90;;;;;;4989877;28;20085;-69
2022/08/13 05:35:53;;;;;;;11.60;7.07;;;16.20;99.90;;;;;;4987465;28;20134;-67
2022/08/13 05:38:23;;;;;;;9.73;6.95;;;16.20;99.90;;;;;;4988349;28;20053;-66
2022/08/13 05:40:58;;;;;;;14.43;7.15;;;16.20;99.90;;;;;;5006516;28;20049;-67
2022/08/13 05:43:27;;;;;;;9.68;6.78;;;16.20;99.90;;;;;;5006659;28;20128;-66
2022/08/13 05:46:02;;;;;;;8.25;6.90;;;16.30;99.90;;;;;;5006135;28;20068;-67
2022/08/13 05:48:32;;;;;;;7.43;6.28;;;16.30;99.90;;;;;;5005569;28;20054;-67
2022/08/13 05:51:00;;;;;;;7.47;6.18;;;16.30;99.90;;;;;;5005364;28;20439;-67
2022/08/13 05:53:27;;;;;;;8.35;7.20;;;16.40;99.90;;;;;;4990190;28;20041;-66
2022/08/13 05:55:54;;;;;;;8.07;6.65;;;16.50;99.90;;;;;;5007806;28;20155;-67
2022/08/13 05:58:21;;;;;;;8.40;6.93;;;16.50;99.90;;;;;;5008291;28;20042;-67
2022/08/13 06:03:32;;;;;;;14.93;6.95;;;16.60;99.90;;;;;;5009650;28;20038;-67
2022/08/13 06:06:04;;;;;;;7.82;6.63;;;16.60;99.90;;;;;;5009965;28;20125;-66
2022/08/13 06:08:38;;;;;;;11.15;7.07;;;16.70;99.90;;;;;;4992340;28;20042;-67
2022/08/13 06:11:07;;;;;;;10.90;7.35;;;16.80;99.90;;;;;;5010315;28;20108;-66
2022/08/13 06:13:35;;;;;;;7.70;6.78;;;16.80;99.90;;;;;;5010468;28;20026;-67
2022/08/13 06:16:03;;;;;;;10.27;6.85;;;16.90;99.90;;;;;;4991756;28;20384;-66
2022/08/13 06:18:31;;;;;;;9.73;6.97;;;16.90;99.90;;;;;;5009042;28;20045;-66
2022/08/13 06:21:00;;;;;;;10.30;6.28;;;17.00;99.90;;;;;;5009811;28;20044;-67
2022/08/13 06:23:28;;;;;;;10.70;8.18;;;17.10;99.90;;;;;;5012049;28;20399;-67
2022/08/13 06:25:55;;;;;;;9.98;6.55;;;17.10;99.90;;;;;;5008961;28;20041;-67
2022/08/13 06:28:25;;;;;;;10.75;6.70;;;17.20;99.90;;;;;;4990182;28;20065;-67
2022/08/13 06:30:53;;;;;;;9.27;6.90;;;17.30;99.90;;;;;;5008964;28;20112;-66
2022/08/13 06:33:22;;;;;;;7.28;6.47;;;17.40;99.90;;;;;;5009304;28;20069;-66
2022/08/13 06:36:00;;;;;;;6.68;6.00;;;17.50;99.90;;;;;;5009673;28;20104;-67
2022/08/13 06:38:31;;;;;;;9.38;6.70;;;17.60;99.90;;;;;;4990818;28;20069;-67
2022/08/13 06:41:00;;;;;;;8.10;6.83;;;17.80;99.90;;;;;;4991873;28;20271;-67
2022/08/13 06:43:31;;;;;;;7.05;6.43;;;17.90;99.90;;;;;;5009297;28;20038;-67
2022/08/13 06:45:59;;;;;;;9.00;6.88;;;18.00;99.90;;;;;;5009259;28;20093;-67
2022/08/13 06:48:27;;;;;;;7.05;6.35;;;18.10;99.90;;;;;;4991560;28;20125;-67
2022/08/13 06:50:53;;;;;;;8.85;6.30;;;18.20;99.90;;;;;;5008260;28;20044;-67
2022/08/13 06:53:19;;;;;;;8.55;6.50;;;18.40;99.90;;;;;;5022583;28;20123;-67
2022/08/13 06:55:48;;;;;;;6.20;5.60;;;18.50;99.90;;;;;;5008604;28;20506;-67
2022/08/13 06:58:15;;;;;;;7.55;6.60;;;18.70;99.90;;;;;;5007836;28;20490;-67
2022/08/13 07:00:41;;;;;;;9.57;5.80;;;18.80;99.90;;;;;;4990886;28;20116;-67
2022/08/13 07:03:10;;;;;;;9.15;5.88;;;19.00;99.90;;;;;;5006886;28;20046;-67
2022/08/13 07:05:38;;;;;;;7.78;5.43;;;19.20;99.90;;;;;;5013547;28;20140;-66
2022/08/13 07:08:11;;;;;;;7.90;5.50;;;19.40;99.90;;;;;;5012834;28;20046;-66
2022/08/13 07:11:21;;;;;;;9.18;4.90;;;19.60;99.90;;;;;;5020392;28;20358;-65
2022/08/13 07:13:41;;;;;;;8.30;4.78;;;19.90;99.90;;;;;;5009321;28;20116;-66
2022/08/13 07:16:08;;;;;;;6.10;5.35;;;20.30;99.90;;;;;;5006344;28;20395;-66
2022/08/13 07:18:35;;;;;;;8.45;4.63;;;20.40;99.90;;;;;;4994373;28;20123;-66
2022/08/13 07:21:04;;;;;;;7.10;4.85;;;20.60;99.90;;;;;;5021989;28;21096;-66
2022/08/13 07:23:31;;;;;;;8.00;4.50;;;20.90;99.90;;;;;;5007820;28;21483;-66
2022/08/13 07:26:00;;;;;;;6.55;4.15;;;21.20;99.90;;;;;;4990346;28;20034;-66
2022/08/13 07:28:29;;;;;;;4.53;4.10;;;21.50;99.90;;;;;;5002014;28;20042;-66
2022/08/13 07:30:56;;;;;;;5.75;3.90;;;21.80;99.90;;;;;;5012139;28;20033;-66
2022/08/13 07:33:22;;;;;;;6.90;3.70;;;22.00;99.90;;;;;;5013729;28;20088;-66
2022/08/13 07:35:48;;;;;;;7.13;4.00;;;22.20;99.90;;;;;;5012888;28;20400;-66
2022/08/13 07:38:15;;;;;;;8.30;3.40;;;22.50;99.90;;;;;;5011302;28;20050;-66
2022/08/13 07:40:43;;;;;;;5.07;3.40;;;22.80;99.40;;;;;;5011230;28;20042;-64
2022/08/13 07:43:12;;;;;;;6.70;3.15;;;23.00;99.10;;;;;;5011267;28;20408;-64
2022/08/13 07:45:39;;;;;;;6.38;2.88;;;23.20;98.70;;;;;;4994221;28;20045;-64
2022/08/13 07:48:06;;;;;;;5.38;2.95;;;23.40;98.60;;;;;;5016808;28;20053;-64
2022/08/13 07:50:33;;;;;;;5.38;2.90;;;23.60;98.30;;;;;;5011244;28;20595;-65
2022/08/13 07:52:59;;;;;;;5.00;2.75;;;23.70;98.20;;;;;;4994008;28;20041;-65
2022/08/13 07:55:27;;;;;;;4.93;3.10;;;24.00;97.90;;;;;;5011094;28;20045;-64
2022/08/13 07:57:54;;;;;;;4.85;2.80;;;24.10;97.50;;;;;;5011071;28;20335;-65
2022/08/13 08:00:29;;;;;;;4.80;2.25;;;24.30;97.40;;;;;;5010588;28;20074;-65
2022/08/13 08:03:02;;;;;;;4.18;2.40;;;24.50;97.20;;;;;;5008828;28;20142;-65
2022/08/13 08:05:34;;;;;;;6.18;2.67;;;24.70;96.40;;;;;;5008783;28;20046;-65
2022/08/13 08:08:00;;;;;;;3.10;2.30;;;24.90;95.50;;;;;;4976342;28;20084;-65
2022/08/13 08:10:27;;;;;;;5.88;2.42;;;25.00;94.90;;;;;;5009935;28;20069;-65
2022/08/13 08:13:00;;;;;;;4.57;2.20;;;25.20;94.70;;;;;;5006411;28;20568;-65
2022/08/13 08:15:27;;;;;;;5.88;2.20;;;25.30;94.20;;;;;;4986430;28;20049;-65
2022/08/13 08:17:57;;;;;;;5.30;2.30;;;25.40;94.60;;;;;;5007595;28;20517;-64
2022/08/13 08:20:23;;;;;;;9.02;2.80;;;25.60;93.60;;;;;;5008699;28;20096;-65
2022/08/13 08:22:50;;;;;;;5.68;2.30;;;25.80;93.70;;;;;;5004495;28;20045;-65
2022/08/13 08:25:18;;;;;;;12.38;2.70;;;25.90;93.40;;;;;;5009618;28;20099;-66
2022/08/13 08:27:44;;;;;;;4.03;2.10;;;26.00;93.10;;;;;;5021323;28;20621;-66
2022/08/13 08:30:16;;;;;;;5.45;2.17;;;26.20;92.30;;;;;;5010403;28;20375;-66
2022/08/13 08:32:45;;;;;;;6.65;2.53;;;26.30;91.20;;;;;;5009925;28;20034;-67
2022/08/13 08:35:12;;;;;;;4.55;2.10;;;26.40;90.90;;;;;;4991045;28;20359;-66
2022/08/13 08:43:11;;;;;;;12.45;2.45;;;26.80;89.60;;;;;;5006973;28;20056;-66
2022/08/13 08:45:39;;;;;;;2.92;2.30;;;26.90;89.10;;;;;;5009043;28;20033;-66
2022/08/13 08:48:06;;;;;;;4.32;2.17;;;27.00;88.30;;;;;;5009846;28;20042;-66
2022/08/13 08:50:33;;;;;;;2.65;2.00;;;27.10;86.50;;;;;;5022681;28;20046;-67
2022/08/13 08:56:04;;;;;;;6.38;2.40;;;27.30;86.00;;;;;;4917288;29;20551;-66
2022/08/13 08:58:34;;;;;;;4.32;1.95;;;27.50;85.90;;;;;;4992692;28;20064;-68
2022/08/13 09:01:00;;;;;;;2.13;1.75;;;27.60;84.20;;;;;;4993192;28;20038;-68
2022/08/13 09:03:27;;;;;;;3.33;1.98;;;27.70;82.90;;;;;;4992936;28;20552;-68
2022/08/13 09:05:54;;;;;;;7.32;2.83;;;27.80;82.00;;;;;;4993258;28;20034;-68
2022/08/13 09:08:20;;;;;;;2.40;1.90;;;27.90;81.70;;;;;;4993263;28;20148;-68
2022/08/13 09:10:52;;;;;;;4.05;2.13;;;28.10;81.40;;;;;;4994264;28;20045;-68
2022/08/13 09:13:21;;;;;;;2.20;1.80;;;28.10;79.80;;;;;;5026517;28;20042;-68
2022/08/13 09:15:50;;;;;;;3.90;2.03;;;28.30;79.70;;;;;;5010415;28;20034;-70
2022/08/13 09:18:19;;;;;;;2.85;2.25;;;28.40;79.00;;;;;;5025489;28;20042;-67
2022/08/13 09:20:45;;;;;;;4.55;2.20;;;28.40;78.10;;;;;;5009009;28;20076;-68
2022/08/13 09:23:15;;;;;;;5.85;2.20;;;28.50;77.80;;;;;;5021796;28;20114;-67
2022/08/13 09:25:51;;;;;;;4.22;2.38;;;28.60;76.90;;;;;;4989030;28;20525;-67
2022/08/13 09:28:23;;;;;;;3.00;2.13;;;28.80;77.50;;;;;;4989269;28;20049;-67
2022/08/13 09:30:53;;;;;;;3.47;1.90;;;28.90;75.30;;;;;;4989767;28;20515;-67
2022/08/13 09:33:20;;;;;;;5.25;2.13;;;29.00;75.80;;;;;;4991788;28;20043;-67
2022/08/13 09:35:49;;;;;;;5.95;2.30;;;29.20;75.70;;;;;;5002306;28;20042;-67
2022/08/13 09:38:15;;;;;;;4.07;2.00;;;29.30;75.00;;;;;;4979832;28;20045;-67
2022/08/13 09:41:20;;;;;;;4.75;1.95;;;29.40;75.00;;;;;;4996447;28;20042;-67
2022/08/13 09:43:47;;;;;;;2.95;1.90;;;29.60;72.40;;;;;;4995013;28;20041;-67
2022/08/13 09:46:15;;;;;;;3.42;1.80;;;29.50;70.20;;;;;;4990558;28;20079;-67
2022/08/13 09:48:41;;;;;;;5.00;1.90;;;29.60;71.70;;;;;;4998940;28;20121;-67
2022/08/13 09:51:13;;;;;;;2.53;1.70;;;29.70;71.50;;;;;;4979874;28;20132;-68
2022/08/13 09:53:40;;;;;;;3.30;2.20;;;29.80;71.00;;;;;;4996404;28;20063;-67
2022/08/13 09:56:06;;;;;;;2.38;1.90;;;29.90;71.00;;;;;;5013517;28;20446;-67
2022/08/13 09:58:32;;;;;;;3.28;2.03;;;29.90;68.80;;;;;;5013570;28;20045;-68
2022/08/13 10:00:58;;;;;;;3.80;1.73;;;29.90;67.80;;;;;;4996028;28;20537;-67
2022/08/13 10:03:24;;;;;;;8.73;2.10;;;29.90;68.20;;;;;;4996025;28;20117;-67
2022/08/13 10:05:51;;;;;;;3.92;2.10;;;30.10;68.60;;;;;;4979873;28;20129;-67
2022/08/13 10:08:18;;;;;;;6.10;2.03;;;30.20;68.60;;;;;;4979567;28;20403;-68
2022/08/13 10:10:46;;;;;;;9.50;2.13;;;30.30;68.10;;;;;;4995868;28;20117;-67
2022/08/13 10:13:13;;;;;;;2.65;1.80;;;30.50;66.40;;;;;;4979429;28;20040;-68
2022/08/13 10:15:39;;;;;;;2.05;1.63;;;30.60;66.10;;;;;;4995822;28;20128;-67
2022/08/13 10:18:05;;;;;;;3.55;2.10;;;30.60;65.80;;;;;;5013393;28;20074;-68
2022/08/13 10:20:45;;;;;;;4.25;2.08;;;30.70;65.90;;;;;;4995547;28;20038;-68
2022/08/13 10:23:14;;;;;;;6.05;1.60;;;30.80;64.30;;;;;;4979302;28;20054;-67
2022/08/13 10:25:42;;;;;;;4.38;1.83;;;30.90;65.70;;;;;;4995647;28;20041;-68
2022/08/13 10:28:16;;;;;;;1.90;1.80;;;30.90;64.00;;;;;;4995512;28;20050;-68
2022/08/13 10:30:42;;;;;;;2.42;1.70;;;31.00;63.70;;;;;;4995882;28;20037;-68
2022/08/13 10:33:08;;;;;;;2.67;1.80;;;31.00;63.70;;;;;;4995388;28;20510;-68
2022/08/13 10:35:35;;;;;;;3.92;1.80;;;31.10;62.70;;;;;;5012796;28;20038;-68
2022/08/13 10:38:00;;;;;;;5.43;1.92;;;31.10;63.00;;;;;;4994740;28;20050;-67
2022/08/13 10:40:27;;;;;;;8.43;2.05;;;31.30;63.20;;;;;;4995086;28;20060;-67
2022/08/13 10:42:53;;;;;;;3.05;1.70;;;31.40;62.30;;;;;;4994273;28;20037;-69
2022/08/13 10:45:20;;;;;;;2.85;1.90;;;31.50;63.30;;;;;;4982634;28;20033;-67
2022/08/13 10:47:54;;;;;;;4.00;1.90;;;31.40;61.60;;;;;;5003351;28;20046;-68
2022/08/13 10:50:31;;;;;;;2.40;1.73;;;31.50;61.50;;;;;;4993697;28;20068;-68
2022/08/13 10:52:58;;;;;;;3.42;1.75;;;31.60;62.30;;;;;;4995208;28;20046;-68
2022/08/13 10:55:25;;;;;;;3.65;1.80;;;31.60;61.40;;;;;;4973102;28;20184;-68
2022/08/13 10:57:51;;;;;;;2.85;1.95;;;31.70;61.40;;;;;;4991112;28;20046;-68
2022/08/13 11:00:18;;;;;;;5.43;2.15;;;31.80;61.30;;;;;;4991582;28;20046;-68
2022/08/13 11:02:48;;;;;;;3.30;1.90;;;31.80;60.70;;;;;;4996863;28;20034;-68
2022/08/13 11:05:14;;;;;;;2.53;1.73;;;31.90;60.20;;;;;;4979321;28;20042;-69
2022/08/13 11:07:39;;;;;;;1.80;1.70;;;32.10;60.50;;;;;;4986408;28;20485;-68
2022/08/13 11:10:08;;;;;;;2.17;1.73;;;32.10;60.30;;;;;;4982912;28;20046;-67
2022/08/13 11:12:36;;;;;;;9.68;2.08;;;32.20;59.60;;;;;;4995311;28;20038;-69
2022/08/13 11:15:07;;;;;;;10.68;2.13;;;32.30;59.50;;;;;;4957246;28;20488;-70
2022/08/13 11:17:34;;;;;;;4.57;2.30;;;32.40;59.10;;;;;;4974011;28;20038;-67
2022/08/13 11:20:05;;;;;;;8.13;1.98;;;32.50;59.60;;;;;;4973926;28;20065;-68
2022/08/13 11:22:31;;;;;;;;;;;32.50;58.50;;;;;;5006727;28;20050;-72
2022/08/13 11:24:59;;;;;;;17.33;3.25;;;32.40;57.10;;;;;;5006829;28;19925;-71
2022/08/13 11:27:25;;;;;;;5.80;2.08;;;32.30;58.40;;;;;;4989056;28;20046;-70
2022/08/13 11:29:53;;;;;;;3.63;1.83;;;32.30;58.90;;;;;;4978128;28;20050;-71
2022/08/13 11:32:19;;;;;;;7.97;2.10;;;32.30;58.40;;;;;;4992593;28;20057;-70
2022/08/13 11:34:45;;;;;;;3.47;1.85;;;32.30;57.90;;;;;;5006053;28;20493;-69
2022/08/13 11:37:11;;;;;;;11.02;2.30;;;32.40;58.50;;;;;;5008687;28;20029;-69
2022/08/13 11:39:37;;;;;;;8.63;2.10;;;32.50;57.90;;;;;;5011408;28;20699;-69
2022/08/13 11:42:03;;;;;;;8.48;1.95;;;32.50;57.00;;;;;;5022205;28;20117;-69
2022/08/13 11:44:29;;;;;;;6.03;2.00;;;32.60;57.10;;;;;;5008505;28;20065;-69
2022/08/13 11:46:54;;;;;;;3.42;2.00;;;32.60;56.80;;;;;;4989937;28;20431;-69
2022/08/13 11:49:21;;;;;;;5.75;1.88;;;32.40;55.70;;;;;;4998829;28;20030;-69
2022/08/13 11:51:47;;;;;;;7.85;2.03;;;32.60;56.30;;;;;;5002286;28;20052;-69
2022/08/13 11:54:14;;;;;;;9.23;2.45;;;32.60;57.00;;;;;;5018960;28;20446;-70
2022/08/13 11:56:39;;;;;;;5.03;1.70;;;32.70;57.00;;;;;;4987798;28;20044;-70
2022/08/13 11:59:05;;;;;;;4.97;2.10;;;32.80;57.10;;;;;;4987681;28;20041;-70
2022/08/13 12:01:31;;;;;;;3.38;1.77;;;32.90;57.00;;;;;;5020002;28;20041;-70
2022/08/13 12:03:57;;;;;;;3.90;2.00;;;32.70;56.10;;;;;;4961883;28;20044;-69
2022/08/13 12:06:23;;;;;;;5.90;2.08;;;32.90;56.70;;;;;;4988481;28;20127;-69
2022/08/13 12:08:48;;;;;;;5.45;2.30;;;32.90;56.70;;;;;;4988157;28;20045;-70
2022/08/13 12:11:15;;;;;;;5.50;2.33;;;33.10;56.50;;;;;;4988591;28;20125;-71
2022/08/13 12:13:41;;;;;;;8.68;2.40;;;33.00;56.30;;;;;;4962343;28;20045;-70
2022/08/13 12:16:06;;;;;;;3.25;1.70;;;33.00;56.50;;;;;;4987177;28;20038;-70
2022/08/13 12:18:32;;;;;;;7.32;2.50;;;33.10;55.60;;;;;;4982586;28;20049;-71
2022/08/13 12:20:58;;;;;;;6.20;2.25;;;33.10;55.60;;;;;;4972724;28;20498;-69
2022/08/13 12:23:23;;;;;;;2.15;1.95;;;33.00;55.10;;;;;;4989371;28;20144;-71
2022/08/13 12:25:49;;;;;;;4.80;1.90;;;33.00;54.60;;;;;;5008062;28;20044;-70
2022/08/13 12:28:17;;;;;;;4.93;1.92;;;33.20;54.20;;;;;;4988753;28;20073;-71
2022/08/13 12:30:44;;;;;;;5.35;1.98;;;33.20;52.70;;;;;;5020140;28;20580;-72
2022/08/13 12:33:10;;;;;;;3.00;2.00;;;33.20;54.70;;;;;;5001742;28;20050;-71
2022/08/13 12:35:36;;;;;;;4.05;2.00;;;33.30;54.50;;;;;;4989253;28;20044;-70
2022/08/13 12:38:07;;;;;;;5.20;1.90;;;33.40;54.40;;;;;;4977792;28;20038;-70
2022/08/13 12:40:33;;;;;;;5.78;2.00;;;33.50;54.90;;;;;;4988297;28;20062;-73
2022/08/13 12:42:59;;;;;;;2.40;1.70;;;33.70;55.40;;;;;;5013730;28;20044;-72
2022/08/13 12:45:24;;;;;;;3.10;1.92;;;33.80;55.50;;;;;;5021384;28;20042;-73
2022/08/13 12:47:50;;;;;;;5.03;2.10;;;34.00;55.20;;;;;;4971860;28;20041;-73
2022/08/13 12:50:19;;;;;;;2.42;2.00;;;34.00;55.20;;;;;;4987743;28;20045;-73
2022/08/13 12:52:45;;;;;;;2.40;2.03;;;34.00;54.50;;;;;;4971674;28;20061;-73
2022/08/13 12:55:12;;;;;;;6.32;1.92;;;34.00;54.70;;;;;;5007263;28;20050;-73
2022/08/13 12:57:38;;;;;;;4.78;2.22;;;34.00;54.10;;;;;;4989904;28;20392;-74
2022/08/13 13:00:08;;;;;;;4.47;2.20;;;34.00;54.00;;;;;;5004989;28;20037;-74
2022/08/13 13:02:34;;;;;;;6.85;2.53;;;33.90;54.20;;;;;;5004948;28;20049;-74
2022/08/13 13:05:00;;;;;;;4.25;2.17;;;33.90;55.60;;;;;;5023564;28;20515;-74
2022/08/13 13:07:27;;;;;;;3.13;1.95;;;33.70;54.80;;;;;;4961723;28;20208;-74
2022/08/13 13:09:53;;;;;;;7.28;2.38;;;33.40;54.60;;;;;;5013417;28;20407;-73
2022/08/13 13:12:19;;;;;;;4.72;2.10;;;33.20;54.90;;;;;;4996925;28;20049;-74